Ny info om parkering ved Klubbhytta PDF Skriv ut E-post
Skrevet av Per Norgaard   
torsdag 17. desember 2015 11:11

Styret i klubben ønsker å korrigere/presisere følgende: All parkering ved Klubbhytta skal kun skje ifm klubbaktivitet. Avinor vil ikke akseptere privat parkering som ikke er klubbrelatert. Misbruk vil utløse bøter, og kan medføre oppsigelse av leieforholdet.

 

 
«StartForrige12345678NesteSiste»

Side 8 av 8
 
METAR
2020/10/27 12:50 ENCN 271250Z 15006KT 120V180 9999 SCT011 BKN017 10/09 Q0992
TAF
2020/10/27 12:36 TAF TAF ENCN 271100Z 2712/2720 16008KT 9999 -SHRA FEW010 BKN030 TEMPO 2712/2718 4000 SHRA BR BKN008 SCT015CB BECMG 2712/2714 23012KT
LN-KFK
Operativ VFR-natt
VFR dag
07:50 - 18:31
Brannvakt
Inaktiv
Banner
Banner
Banner
Banner
Banner